createdAt,value
2022-08-03T00:01:49.424Z,79.98
2022-08-03T00:04:16.046Z,80.20
2022-08-03T00:06:42.493Z,80.60
2022-08-03T00:09:09.132Z,80.78
2022-08-03T00:11:36.495Z,81.10
2022-08-03T00:14:04.979Z,80.71
2022-08-03T00:16:31.624Z,80.86
2022-08-03T00:18:58.529Z,81.23
2022-08-03T00:21:27.931Z,81.42
2022-08-03T00:23:54.639Z,81.47
2022-08-03T00:26:21.983Z,81.97
2022-08-03T00:28:51.156Z,81.58
2022-08-03T00:31:22.312Z,81.62
2022-08-03T00:34:04.572Z,81.90
2022-08-03T00:36:32.806Z,81.82
2022-08-03T00:39:01.449Z,82.25
2022-08-03T00:41:28.187Z,82.38
2022-08-03T00:43:54.825Z,82.26
2022-08-03T00:46:22.371Z,82.21
2022-08-03T00:48:53.194Z,82.72
2022-08-03T00:51:21.594Z,82.62
2022-08-03T00:53:48.194Z,82.87
2022-08-03T00:56:15.961Z,82.80
2022-08-03T00:58:43.753Z,83.15
2022-08-03T01:01:12.327Z,83.29
2022-08-03T01:03:39.205Z,83.25
2022-08-03T01:06:18.721Z,83.23
2022-08-03T01:09:22.061Z,83.50
2022-08-03T01:12:01.016Z,84.07
2022-08-03T01:14:38.209Z,83.68
2022-08-03T01:17:22.654Z,83.92
2022-08-03T01:19:56.179Z,83.29
2022-08-03T01:22:49.996Z,83.45
2022-08-03T01:25:32.426Z,83.79
2022-08-03T01:28:17.500Z,84.29
2022-08-03T01:30:46.777Z,84.15
2022-08-03T01:33:19.116Z,84.26
2022-08-03T01:35:50.682Z,84.14
2022-08-03T01:38:47.678Z,84.10
2022-08-03T01:41:18.791Z,84.20
2022-08-03T01:44:01.242Z,84.40
2022-08-03T01:46:37.517Z,84.22
2022-08-03T01:49:09.446Z,84.13
2022-08-03T01:51:57.850Z,83.89
2022-08-03T01:54:27.045Z,84.06
2022-08-03T01:56:56.776Z,84.60
2022-08-03T01:59:26.297Z,84.55
2022-08-03T02:02:28.812Z,84.48
2022-08-03T02:04:43.702Z,84.37
2022-08-03T02:07:12.008Z,84.51
2022-08-03T02:09:41.464Z,84.98
2022-08-03T02:12:12.199Z,85.53
2022-08-03T02:14:40.871Z,85.62
2022-08-03T02:17:07.817Z,85.75
2022-08-03T02:19:36.018Z,85.74
2022-08-03T02:22:04.852Z,85.59
2022-08-03T02:24:31.970Z,85.53
2022-08-03T02:26:59.804Z,85.95
2022-08-03T02:29:38.625Z,86.03
2022-08-03T02:32:32.593Z,86.64
2022-08-03T02:35:01.243Z,86.52
2022-08-03T02:37:34.210Z,86.69
2022-08-03T02:40:04.898Z,86.88
2022-08-03T02:42:36.820Z,86.62
2022-08-03T02:45:07.188Z,86.92
2022-08-03T02:47:54.241Z,87.03
2022-08-03T02:50:22.869Z,86.92
2022-08-03T02:52:51.105Z,86.61
2022-08-03T02:55:20.758Z,86.86
2022-08-03T02:57:48.165Z,87.23
2022-08-03T03:00:27.528Z,87.42
2022-08-03T03:02:57.920Z,87.21
2022-08-03T03:05:52.410Z,87.37
2022-08-03T03:08:18.630Z,87.24
2022-08-03T03:10:48.172Z,87.42
2022-08-03T03:13:16.193Z,87.28
2022-08-03T03:15:45.485Z,87.05
2022-08-03T03:18:12.913Z,87.53
2022-08-03T03:20:41.060Z,87.58
2022-08-03T03:23:09.638Z,87.87
2022-08-03T03:25:36.622Z,87.74
2022-08-03T03:28:06.348Z,87.71
2022-08-03T03:30:33.416Z,88.03
2022-08-03T03:33:00.079Z,88.43
2022-08-03T03:35:27.933Z,88.30
2022-08-03T03:37:54.438Z,88.09
2022-08-03T03:40:23.608Z,87.96
2022-08-03T03:42:50.539Z,88.32
2022-08-03T03:45:17.971Z,88.26
2022-08-03T03:47:44.613Z,88.28
2022-08-03T03:50:15.755Z,88.33
2022-08-03T03:52:42.244Z,88.44
2022-08-03T03:55:08.898Z,88.31
2022-08-03T03:57:35.379Z,87.87
2022-08-03T04:00:02.229Z,88.18
2022-08-03T04:02:28.740Z,88.28
2022-08-03T04:05:13.977Z,88.03
2022-08-03T04:08:15.606Z,88.06
2022-08-03T04:10:58.443Z,87.74
2022-08-03T04:16:13.069Z,88.11
2022-08-03T04:18:43.251Z,87.81
2022-08-03T04:21:12.945Z,88.04
2022-08-03T04:23:44.597Z,88.04
2022-08-03T04:26:13.489Z,88.01
2022-08-03T04:28:43.448Z,87.87
2022-08-03T04:31:10.238Z,88.09
2022-08-03T04:33:39.523Z,88.03
2022-08-03T04:36:08.932Z,88.52
2022-08-03T04:42:02.257Z,87.93
2022-08-03T04:44:40.456Z,88.28
2022-08-03T04:47:07.464Z,88.05
2022-08-03T04:49:36.613Z,88.27
2022-08-03T04:52:03.765Z,88.10
2022-08-03T04:54:30.697Z,88.18
2022-08-03T04:56:57.198Z,88.05
2022-08-03T04:59:23.835Z,88.36
2022-08-03T05:01:50.378Z,88.15
2022-08-03T05:04:16.866Z,88.28
2022-08-03T05:06:48.023Z,88.05
2022-08-03T05:09:14.914Z,87.82
2022-08-03T05:11:41.418Z,87.84
2022-08-03T05:14:07.927Z,87.63
2022-08-03T05:16:34.612Z,87.22
2022-08-03T05:19:01.206Z,87.48
2022-08-03T05:21:50.395Z,87.43
2022-08-03T05:24:14.088Z,87.63
2022-08-03T05:26:40.611Z,87.32
2022-08-03T05:29:07.298Z,87.48
2022-08-03T05:31:36.838Z,87.19
2022-08-03T05:34:03.358Z,87.00
2022-08-03T05:36:29.810Z,87.14
2022-08-03T05:39:00.809Z,86.76
2022-08-03T05:41:36.602Z,86.85
2022-08-03T05:44:04.157Z,86.47
2022-08-03T05:46:30.547Z,86.93
2022-08-03T05:48:57.032Z,86.31
2022-08-03T05:51:23.540Z,86.37
2022-08-03T05:53:49.945Z,86.65
2022-08-03T05:56:17.031Z,86.58
2022-08-03T05:58:45.307Z,86.73
2022-08-03T06:01:11.935Z,86.53
2022-08-03T06:03:38.419Z,86.39
2022-08-03T06:06:04.952Z,86.04
2022-08-03T06:08:31.476Z,85.60
2022-08-03T06:11:00.965Z,85.47
2022-08-03T06:13:27.477Z,86.02
2022-08-03T06:15:53.909Z,85.71
2022-08-03T06:18:24.502Z,86.01
2022-08-03T06:20:52.311Z,86.17
2022-08-03T06:23:19.021Z,85.85
2022-08-03T06:25:45.995Z,85.45
2022-08-03T06:28:51.705Z,85.35
2022-08-03T06:31:06.592Z,85.55
2022-08-03T06:34:30.933Z,85.91
2022-08-03T06:36:20.543Z,85.46
2022-08-03T06:38:49.926Z,85.27
2022-08-03T06:41:16.551Z,85.25
2022-08-03T06:44:03.734Z,84.82
2022-08-03T06:46:29.474Z,84.72
2022-08-03T06:48:57.183Z,84.18
2022-08-03T06:52:03.797Z,83.69
2022-08-03T06:54:10.827Z,84.25
2022-08-03T06:56:37.294Z,83.77
2022-08-03T06:59:03.813Z,83.34
2022-08-03T07:01:32.611Z,83.48
2022-08-03T07:04:00.469Z,82.93
2022-08-03T07:06:27.048Z,83.52
2022-08-03T07:08:57.717Z,83.02
2022-08-03T07:11:25.906Z,83.12
2022-08-03T07:13:52.429Z,83.04
2022-08-03T07:16:19.049Z,83.14
2022-08-03T07:18:45.562Z,82.50
2022-08-03T07:21:12.792Z,82.83
2022-08-03T07:23:39.312Z,82.44
2022-08-03T07:26:05.925Z,82.51
2022-08-03T07:28:35.278Z,83.08
2022-08-03T07:31:01.746Z,81.63
2022-08-03T07:33:28.340Z,81.13
2022-08-03T07:35:54.794Z,80.95
2022-08-03T07:38:21.383Z,81.31
2022-08-03T07:40:47.945Z,80.43
2022-08-03T07:43:14.488Z,79.77
2022-08-03T07:45:41.101Z,77.74
2022-08-03T07:48:11.965Z,77.46
2022-08-03T07:50:38.986Z,78.45
2022-08-03T07:53:05.731Z,79.45
2022-08-03T07:55:32.209Z,79.05
2022-08-03T07:58:21.921Z,79.82
2022-08-03T08:00:53.504Z,80.27
2022-08-03T08:03:21.818Z,80.39
2022-08-03T08:05:49.212Z,79.79
2022-08-03T08:08:15.765Z,79.94
2022-08-03T08:10:42.218Z,79.90
2022-08-03T08:13:24.742Z,78.56
2022-08-03T08:15:51.234Z,78.13
2022-08-03T08:20:58.955Z,78.44
2022-08-03T08:23:43.654Z,78.38
2022-08-03T08:26:11.004Z,78.19
2022-08-03T08:28:37.493Z,78.17
2022-08-03T08:31:04.105Z,76.96
2022-08-03T08:34:01.012Z,76.77
2022-08-03T08:36:17.446Z,76.76
2022-08-03T08:38:45.231Z,75.75
2022-08-03T08:41:14.223Z,76.03
2022-08-03T08:43:41.551Z,75.22
2022-08-03T08:46:23.643Z,74.33
2022-08-03T08:48:51.961Z,74.69
2022-08-03T08:51:20.552Z,74.78
2022-08-03T08:53:51.625Z,74.05
2022-08-03T08:58:59.080Z,74.99
2022-08-03T09:01:26.532Z,74.05
2022-08-03T09:03:54.294Z,72.88
2022-08-03T09:06:22.898Z,72.61
2022-08-03T09:08:49.574Z,71.61
2022-08-03T09:11:16.068Z,70.99
2022-08-03T09:13:42.823Z,71.36
2022-08-03T09:16:17.624Z,71.63
2022-08-03T09:18:47.634Z,69.68
2022-08-03T09:21:33.610Z,69.23
2022-08-03T09:24:05.648Z,69.13
2022-08-03T09:26:35.287Z,68.38
2022-08-03T09:29:13.531Z,68.56
2022-08-03T09:31:44.524Z,67.44
2022-08-03T09:34:17.701Z,67.14
2022-08-03T09:36:48.838Z,67.49
2022-08-03T09:39:17.496Z,68.17
2022-08-03T09:41:48.604Z,67.71
2022-08-03T09:44:25.315Z,66.63
2022-08-03T09:46:56.718Z,66.49
2022-08-03T09:49:24.381Z,67.02
2022-08-03T09:52:31.676Z,67.56
2022-08-03T09:54:38.392Z,66.96
2022-08-03T09:57:04.924Z,66.81
2022-08-03T09:59:33.864Z,66.06
2022-08-03T10:02:01.744Z,66.29
2022-08-03T10:04:28.645Z,65.50
2022-08-03T10:07:06.976Z,65.15
2022-08-03T10:09:33.516Z,64.92
2022-08-03T10:12:08.542Z,64.85
2022-08-03T10:14:37.647Z,64.56
2022-08-03T10:17:04.485Z,63.95
2022-08-03T10:19:31.146Z,63.34
2022-08-03T10:22:23.333Z,64.76
2022-08-03T10:24:56.305Z,63.19
2022-08-03T10:27:25.037Z,62.47
2022-08-03T10:29:55.018Z,62.48
2022-08-03T10:32:28.793Z,62.05
2022-08-03T10:35:04.028Z,61.22
2022-08-03T10:37:57.353Z,60.96
2022-08-03T10:43:21.960Z,61.56
2022-08-03T10:45:49.077Z,60.63
2022-08-03T10:48:17.214Z,60.61
2022-08-03T10:50:44.662Z,60.31
2022-08-03T10:53:11.150Z,59.64
2022-08-03T10:56:05.615Z,60.24
2022-08-03T10:58:57.014Z,60.40
2022-08-03T11:01:58.498Z,60.64
2022-08-03T11:04:29.176Z,59.80
2022-08-03T11:07:15.800Z,59.27
2022-08-03T11:09:50.463Z,59.15
2022-08-03T11:12:31.177Z,59.04
2022-08-03T11:15:07.160Z,58.66
2022-08-03T11:17:45.944Z,58.92
2022-08-03T11:20:49.929Z,57.12
2022-08-03T11:23:20.260Z,55.93
2022-08-03T11:26:13.303Z,57.59
2022-08-03T11:28:41.050Z,56.32
2022-08-03T11:31:46.679Z,55.41
2022-08-03T11:34:10.607Z,56.06
2022-08-03T11:37:14.758Z,54.67
2022-08-03T11:39:46.335Z,54.58
2022-08-03T11:42:25.399Z,53.76
2022-08-03T11:44:56.583Z,54.17
2022-08-03T11:47:25.628Z,54.47
2022-08-03T11:49:57.297Z,54.03
2022-08-03T11:52:26.966Z,55.92
2022-08-03T11:54:56.592Z,54.93
2022-08-03T11:59:16.850Z,53.40
2022-08-03T12:00:22.590Z,53.47
2022-08-03T12:03:07.547Z,52.85
2022-08-03T12:05:34.053Z,52.76
2022-08-03T12:08:03.971Z,51.24
2022-08-03T12:10:33.018Z,51.05
2022-08-03T12:13:01.244Z,51.26
2022-08-03T12:15:33.973Z,51.25
2022-08-03T12:18:01.937Z,52.46
2022-08-03T12:20:34.874Z,51.21
2022-08-03T12:23:04.361Z,49.96
2022-08-03T12:25:38.663Z,49.57
2022-08-03T12:28:35.836Z,50.97
2022-08-03T12:31:02.500Z,51.40
2022-08-03T12:33:29.282Z,47.58
2022-08-03T12:36:08.302Z,47.81
2022-08-03T12:38:39.541Z,47.34
2022-08-03T12:41:08.734Z,47.57
2022-08-03T12:43:39.409Z,50.31
2022-08-03T12:46:15.530Z,48.17
2022-08-03T12:49:06.612Z,49.19
2022-08-03T12:51:43.686Z,49.50
2022-08-03T12:54:16.724Z,48.01
2022-08-03T12:57:16.339Z,48.08
2022-08-03T12:59:53.082Z,47.78
2022-08-03T13:02:23.735Z,47.78
2022-08-03T13:07:41.373Z,47.64
2022-08-03T13:10:26.950Z,47.94
2022-08-03T13:12:53.611Z,46.49
2022-08-03T13:15:20.187Z,46.24
2022-08-03T13:17:46.679Z,45.48
2022-08-03T13:20:13.375Z,44.71
2022-08-03T13:22:39.901Z,46.46
2022-08-03T13:25:06.594Z,45.31
2022-08-03T13:28:04.259Z,45.16
2022-08-03T13:30:28.191Z,44.16
2022-08-03T13:32:58.564Z,44.23
2022-08-03T13:35:25.383Z,43.01
2022-08-03T13:37:51.900Z,43.63
2022-08-03T13:40:18.456Z,44.36
2022-08-03T13:42:50.039Z,45.41
2022-08-03T13:45:16.547Z,45.38
2022-08-03T13:47:43.199Z,45.22
2022-08-03T13:50:09.897Z,45.56
2022-08-03T13:52:36.631Z,45.30
2022-08-03T13:55:05.067Z,45.23
2022-08-03T13:58:03.515Z,43.18
2022-08-03T14:00:28.212Z,42.56
2022-08-03T14:03:14.195Z,43.73
2022-08-03T14:05:42.821Z,43.08
2022-08-03T14:08:10.290Z,44.09
2022-08-03T14:10:38.743Z,43.02
2022-08-03T14:13:06.049Z,42.51
2022-08-03T14:15:37.496Z,42.56
2022-08-03T14:18:04.843Z,43.08
2022-08-03T14:20:46.976Z,42.88
2022-08-03T14:23:17.414Z,42.95
2022-08-03T14:25:51.961Z,42.93
2022-08-03T14:28:20.593Z,42.85
2022-08-03T14:30:47.804Z,42.35
2022-08-03T14:33:14.772Z,43.02
2022-08-03T14:35:41.220Z,43.02
2022-08-03T14:38:07.725Z,42.68
2022-08-03T14:40:34.243Z,41.64
2022-08-03T14:43:00.858Z,42.20
2022-08-03T14:45:27.651Z,41.48
2022-08-03T14:50:10.424Z,41.33
2022-08-03T14:50:44.459Z,41.71
2022-08-03T14:53:13.665Z,43.03
2022-08-03T14:55:50.334Z,42.24
2022-08-03T14:58:20.604Z,42.78
2022-08-03T15:00:47.501Z,42.44
2022-08-03T15:03:16.743Z,42.31
2022-08-03T15:05:44.262Z,42.93
2022-08-03T15:10:51.957Z,42.43
2022-08-03T15:13:19.539Z,42.71
2022-08-03T15:15:49.083Z,43.05
2022-08-03T15:18:16.113Z,42.43
2022-08-03T15:20:45.365Z,43.68
2022-08-03T15:23:14.078Z,43.04
2022-08-03T15:26:30.239Z,42.34
2022-08-03T15:28:27.244Z,42.18
2022-08-03T15:30:53.866Z,44.19
2022-08-03T15:33:20.526Z,42.99
2022-08-03T15:35:47.610Z,43.80
2022-08-03T15:38:14.172Z,45.56
2022-08-03T15:40:40.776Z,45.48
2022-08-03T15:43:07.480Z,44.90
2022-08-03T15:45:36.080Z,45.14
2022-08-03T15:48:04.795Z,44.94
2022-08-03T15:50:31.525Z,45.06
2022-08-03T15:52:58.055Z,45.36
2022-08-03T15:55:24.697Z,45.64
2022-08-03T15:59:09.356Z,45.94
2022-08-03T16:00:38.067Z,46.45
2022-08-03T16:03:04.745Z,47.33
2022-08-03T16:05:31.373Z,47.34
2022-08-03T16:08:02.852Z,47.12
2022-08-03T16:10:31.834Z,47.63
2022-08-03T16:13:01.429Z,45.82
2022-08-03T16:15:28.235Z,44.65
2022-08-03T16:17:54.821Z,45.77
2022-08-03T16:20:31.686Z,46.27
2022-08-03T16:23:11.627Z,48.13
2022-08-03T16:25:40.478Z,46.22
2022-08-03T16:28:13.100Z,46.46
2022-08-03T16:30:42.113Z,47.28
2022-08-03T16:33:09.094Z,47.45
2022-08-03T16:35:35.987Z,47.08
2022-08-03T16:38:09.208Z,47.82
2022-08-03T16:40:36.299Z,48.53
2022-08-03T16:43:18.594Z,48.80
2022-08-03T16:45:46.750Z,49.34
2022-08-03T16:48:13.755Z,49.08
2022-08-03T16:50:40.266Z,49.67
2022-08-03T16:53:09.014Z,47.35
2022-08-03T16:55:48.418Z,48.28
2022-08-03T16:58:19.669Z,50.59
2022-08-03T17:01:10.910Z,48.00
2022-08-03T17:03:57.460Z,48.44
2022-08-03T17:06:34.340Z,49.62
2022-08-03T17:09:01.917Z,49.47
2022-08-03T17:11:32.971Z,48.65
2022-08-03T17:14:00.004Z,50.07
2022-08-03T17:16:27.049Z,49.50
2022-08-03T17:19:04.016Z,49.72
2022-08-03T17:21:32.450Z,50.64
2022-08-03T17:24:35.611Z,51.22
2022-08-03T17:27:23.155Z,50.40
2022-08-03T17:30:00.993Z,51.05
2022-08-03T17:32:32.341Z,51.29
2022-08-03T17:34:58.925Z,51.14
2022-08-03T17:37:49.962Z,51.58
2022-08-03T17:40:18.000Z,52.20
2022-08-03T17:42:46.257Z,51.27
2022-08-03T17:45:17.739Z,52.20
2022-08-03T17:47:45.522Z,51.37
2022-08-03T17:50:28.875Z,51.50
2022-08-03T17:53:07.114Z,51.46
2022-08-03T17:55:55.495Z,52.19
2022-08-03T17:58:41.434Z,51.77
2022-08-03T18:02:00.694Z,52.71
2022-08-03T18:04:21.820Z,52.59
2022-08-03T18:06:59.666Z,51.29
2022-08-03T18:10:03.838Z,52.11
2022-08-03T18:12:26.997Z,53.60
2022-08-03T18:15:01.340Z,54.28
2022-08-03T18:17:55.887Z,53.29
2022-08-03T18:20:34.772Z,53.44
2022-08-03T18:23:08.675Z,53.57
2022-08-03T18:25:45.337Z,54.47
2022-08-03T18:28:16.332Z,55.93
2022-08-03T18:30:54.688Z,55.23
2022-08-03T18:34:19.211Z,55.97
2022-08-03T18:36:21.793Z,56.07
2022-08-03T18:39:05.296Z,56.74
2022-08-03T18:41:34.781Z,56.24
2022-08-03T18:44:09.548Z,56.68
2022-08-03T18:47:22.864Z,58.03
2022-08-03T18:50:27.004Z,56.95
2022-08-03T18:54:02.159Z,56.55
2022-08-03T18:56:26.920Z,57.50
2022-08-03T18:59:15.797Z,56.63
2022-08-03T19:02:01.012Z,56.92
2022-08-03T19:04:35.456Z,56.36
2022-08-03T19:07:07.013Z,56.98
2022-08-03T19:09:43.121Z,57.30
2022-08-03T19:12:30.851Z,57.72
2022-08-03T19:15:04.958Z,57.91
2022-08-03T19:17:36.029Z,59.39
2022-08-03T19:20:08.884Z,59.43
2022-08-03T19:22:37.973Z,59.54
2022-08-03T19:25:06.951Z,59.74
2022-08-03T19:27:39.772Z,59.97
2022-08-03T19:30:21.852Z,60.26
2022-08-03T19:32:54.229Z,60.55
2022-08-03T19:35:51.678Z,61.34
2022-08-03T19:38:09.048Z,61.24
2022-08-03T19:40:42.114Z,61.74
2022-08-03T19:43:32.950Z,62.22
2022-08-03T19:46:16.380Z,62.01
2022-08-03T19:48:51.909Z,61.88
2022-08-03T19:51:20.327Z,62.16
2022-08-03T19:54:09.449Z,61.69
2022-08-03T19:56:46.233Z,62.09
2022-08-03T19:59:16.058Z,62.54
2022-08-03T20:01:50.447Z,62.12
2022-08-03T20:04:17.681Z,61.81
2022-08-03T20:06:47.961Z,62.30
2022-08-03T20:09:18.090Z,62.90
2022-08-03T20:11:45.117Z,62.56
2022-08-03T20:16:59.094Z,62.42
2022-08-03T20:19:32.732Z,62.58
2022-08-03T20:22:01.973Z,63.03
2022-08-03T20:24:34.341Z,63.17
2022-08-03T20:27:03.644Z,63.50
2022-08-03T20:30:06.355Z,63.52
2022-08-03T20:32:25.368Z,63.30
2022-08-03T20:34:52.938Z,63.66
2022-08-03T20:37:19.792Z,63.98
2022-08-03T20:39:48.168Z,63.83
2022-08-03T20:42:21.605Z,64.50
2022-08-03T20:45:04.554Z,64.34
2022-08-03T20:47:36.769Z,65.39
2022-08-03T20:50:16.845Z,65.63
2022-08-03T20:52:43.996Z,65.99
2022-08-03T20:55:16.935Z,66.83
2022-08-03T20:57:43.557Z,66.62
2022-08-03T21:00:19.455Z,66.65
2022-08-03T21:02:48.665Z,67.08
2022-08-03T21:05:15.222Z,66.49
2022-08-03T21:08:05.126Z,66.46
2022-08-03T21:10:37.847Z,66.91
2022-08-03T21:13:03.679Z,62.54
2022-08-03T21:13:24.664Z,67.14
2022-08-03T21:16:11.593Z,67.37
2022-08-03T21:18:48.802Z,67.86
2022-08-03T21:21:18.097Z,67.98
2022-08-03T21:24:05.060Z,68.00
2022-08-03T21:26:33.657Z,67.80
2022-08-03T21:29:03.271Z,68.08
2022-08-03T21:31:29.963Z,68.65
2022-08-03T21:33:59.532Z,68.23
2022-08-03T21:36:27.919Z,68.97
2022-08-03T21:38:55.909Z,68.72
2022-08-03T21:41:23.511Z,69.05
2022-08-03T21:43:50.008Z,69.38
2022-08-03T21:46:19.361Z,69.09
2022-08-03T21:48:48.493Z,69.72
2022-08-03T21:51:17.344Z,70.20
2022-08-03T21:54:02.978Z,70.35
2022-08-03T21:56:51.251Z,70.35
2022-08-03T21:59:20.255Z,70.29
2022-08-03T22:01:48.824Z,70.21
2022-08-03T22:04:45.922Z,70.72
2022-08-03T22:07:07.473Z,70.40
2022-08-03T22:09:35.228Z,71.29
2022-08-03T22:12:01.733Z,71.20
2022-08-03T22:14:28.989Z,71.59
2022-08-03T22:16:56.279Z,71.73
2022-08-03T22:19:22.694Z,72.01
2022-08-03T22:21:49.784Z,71.94
2022-08-03T22:24:19.641Z,71.72
2022-08-03T22:27:09.716Z,72.03
2022-08-03T22:29:39.567Z,72.35
2022-08-03T22:32:06.941Z,72.25
2022-08-03T22:34:34.260Z,72.27
2022-08-03T22:37:04.797Z,72.87
2022-08-03T22:39:32.445Z,72.68
2022-08-03T22:41:59.438Z,72.81
2022-08-03T22:44:27.480Z,72.88
2022-08-03T22:46:55.431Z,73.26
2022-08-03T22:49:22.333Z,72.96
2022-08-03T22:51:51.567Z,73.10
2022-08-03T22:54:18.088Z,72.81
2022-08-03T22:56:46.916Z,72.92
2022-08-03T22:59:40.858Z,73.13
2022-08-03T23:02:20.264Z,72.92
2022-08-03T23:04:54.342Z,73.03
2022-08-03T23:07:27.829Z,73.16
2022-08-03T23:09:56.214Z,73.21
2022-08-03T23:12:24.041Z,73.21
2022-08-03T23:14:56.188Z,73.51
2022-08-03T23:17:24.059Z,73.56
2022-08-03T23:20:12.450Z,73.60
2022-08-03T23:22:42.890Z,73.81
2022-08-03T23:25:10.241Z,74.11
2022-08-03T23:27:40.256Z,74.34
2022-08-03T23:30:08.971Z,74.54
2022-08-03T23:32:36.557Z,74.60
2022-08-03T23:36:22.620Z,74.46
2022-08-03T23:38:22.448Z,74.75
2022-08-03T23:40:51.239Z,74.56
2022-08-03T23:43:39.884Z,74.70
2022-08-03T23:46:08.927Z,75.07
2022-08-03T23:51:34.660Z,75.38
2022-08-03T23:54:31.108Z,75.60
2022-08-03T23:57:31.815Z,75.44
